Time;durP1;ratioP1;P1;durP2;ratioP2;P2;SDS_P1;SDS_P2;PMS_P1;PMS_P2;Temp;Humidity;BMP_temperature;BMP_pressure;BME280_temperature;BME280_humidity;BME280_pressure;Samples;Min_cycle;Max_cycle;Signal;HPM_P1;HPM_P2
2022/05/31 00:02:02;;;;;;;3.53;3.00;;;19.30;49.60;20.70;100563.00;;;;4987654;28;20309;-45
2022/05/31 00:04:28;;;;;;;3.13;2.83;;;19.20;49.60;20.70;100566.00;;;;4970267;28;20373;-45
2022/05/31 00:06:54;;;;;;;3.20;2.90;;;19.20;49.50;20.70;100566.00;;;;4990492;28;20173;-45
2022/05/31 00:09:20;;;;;;;4.00;3.00;;;19.20;49.40;20.70;100568.00;;;;4991125;28;20669;-45
2022/05/31 00:11:46;;;;;;;3.10;2.80;;;19.20;49.20;20.60;100572.00;;;;4991658;28;20719;-45
2022/05/31 00:14:13;;;;;;;3.00;2.70;;;19.20;49.30;20.60;100564.00;;;;4991208;28;20275;-45
2022/05/31 00:16:38;;;;;;;3.20;2.90;;;19.10;49.20;20.60;100572.00;;;;4991363;28;20172;-45
2022/05/31 00:19:04;;;;;;;3.60;2.97;;;19.10;49.20;20.60;100570.00;;;;4993324;28;20267;-45
2022/05/31 00:21:59;;;;;;;4.17;3.10;;;19.10;49.10;20.60;100557.00;;;;4992587;28;20204;-44
2022/05/31 00:24:24;;;;;;;3.10;2.80;;;19.10;49.20;20.60;100554.00;;;;4977201;28;20621;-44
2022/05/31 00:26:50;;;;;;;3.07;2.77;;;19.10;49.30;20.50;100564.00;;;;4991174;28;20195;-45
2022/05/31 00:29:16;;;;;;;2.80;2.60;;;19.00;49.10;20.60;100557.00;;;;4991134;28;20199;-45
2022/05/31 00:31:45;;;;;;;2.90;2.70;;;19.00;49.10;20.50;100563.00;;;;4990807;28;20202;-45
2022/05/31 00:34:11;;;;;;;3.10;2.70;;;19.00;49.10;20.50;100556.00;;;;4990829;28;20192;-45
2022/05/31 00:36:38;;;;;;;2.97;2.67;;;19.00;49.00;20.50;100546.00;;;;4990716;28;20191;-45
2022/05/31 00:39:04;;;;;;;3.27;2.90;;;19.00;49.00;20.50;100555.00;;;;4973102;28;20291;-44
2022/05/31 00:41:32;;;;;;;3.10;2.70;;;19.00;49.00;20.50;100549.00;;;;4990669;28;20200;-45
2022/05/31 00:44:03;;;;;;;3.20;2.90;;;18.90;48.90;20.50;100558.00;;;;4990817;28;20177;-45
2022/05/31 00:46:50;;;;;;;2.93;2.63;;;18.90;49.00;20.40;100554.00;;;;4990774;28;20708;-46
2022/05/31 00:49:36;;;;;;;2.60;2.40;;;18.90;49.70;20.40;100547.00;;;;4989440;28;20164;-45
2022/05/31 00:52:17;;;;;;;2.90;2.70;;;18.90;49.00;20.40;100559.00;;;;4975670;28;20678;-45
2022/05/31 00:54:52;;;;;;;3.13;2.77;;;18.80;49.10;20.40;100566.00;;;;4989255;28;20807;-46
2022/05/31 00:57:18;;;;;;;2.90;2.70;;;18.80;49.00;20.30;100562.00;;;;4973795;28;20155;-46
2022/05/31 00:59:48;;;;;;;3.00;2.70;;;18.80;49.00;20.30;100548.00;;;;4989465;28;20287;-46
2022/05/31 01:02:17;;;;;;;2.70;2.50;;;18.80;49.10;20.30;100559.00;;;;4972812;28;20220;-44
2022/05/31 01:04:50;;;;;;;3.50;2.60;;;18.80;49.00;20.30;100554.00;;;;4989486;28;20642;-45
2022/05/31 01:07:16;;;;;;;2.63;2.43;;;18.80;49.20;20.30;100550.00;;;;4989249;28;20153;-43
2022/05/31 01:09:42;;;;;;;3.00;2.70;;;18.80;49.20;20.30;100560.00;;;;4989935;28;20211;-45
2022/05/31 01:12:08;;;;;;;2.67;2.47;;;18.80;49.00;20.20;100541.00;;;;4993297;28;20598;-45
2022/05/31 01:14:34;;;;;;;2.73;2.53;;;18.70;48.90;20.20;100552.00;;;;4975235;28;20696;-44
2022/05/31 01:17:05;;;;;;;3.30;2.77;;;18.70;49.00;20.20;100546.00;;;;4989933;28;20176;-46
2022/05/31 01:22:16;;;;;;;3.13;2.50;;;18.70;49.00;20.20;100548.00;;;;4989621;28;20706;-45
2022/05/31 01:25:05;;;;;;;3.50;2.60;;;18.70;48.90;20.20;100542.00;;;;4990233;28;20184;-46
2022/05/31 01:27:39;;;;;;;3.10;2.50;;;18.70;49.10;20.10;100537.00;;;;4975374;28;20208;-45
2022/05/31 01:30:06;;;;;;;2.70;2.50;;;18.70;49.10;20.10;100536.00;;;;4990198;28;20230;-45
2022/05/31 01:32:34;;;;;;;3.33;2.40;;;18.70;49.00;20.10;100525.00;;;;4982731;28;20169;-45
2022/05/31 01:35:17;;;;;;;2.87;2.50;;;18.60;49.00;20.10;100512.00;;;;4983463;28;20228;-45
2022/05/31 01:38:00;;;;;;;3.83;2.60;;;18.60;48.80;20.10;100528.00;;;;4959509;28;20187;-45
2022/05/31 01:41:04;;;;;;;2.67;2.47;;;18.60;48.90;20.10;100536.00;;;;4988514;28;20184;-44
2022/05/31 01:43:30;;;;;;;3.37;2.60;;;18.60;48.80;20.00;100534.00;;;;4988516;28;20202;-45
2022/05/31 01:46:04;;;;;;;3.00;2.70;;;18.50;48.90;20.00;100514.00;;;;4989784;28;20805;-45
2022/05/31 01:48:30;;;;;;;2.63;2.43;;;18.50;49.00;20.00;100527.00;;;;4972952;28;20179;-45
2022/05/31 01:50:56;;;;;;;2.70;2.50;;;18.60;49.00;20.00;100531.00;;;;4988331;28;20223;-45
2022/05/31 01:53:22;;;;;;;2.70;2.50;;;18.60;49.10;20.00;100520.00;;;;4988054;28;20175;-45
2022/05/31 01:55:48;;;;;;;2.60;2.40;;;18.60;49.10;20.00;100511.00;;;;4989573;28;20176;-44
2022/05/31 01:58:22;;;;;;;2.90;2.60;;;18.50;48.90;19.90;100516.00;;;;4988255;28;20258;-44
2022/05/31 02:00:47;;;;;;;2.80;2.50;;;18.50;49.00;19.90;100511.00;;;;4972810;28;20191;-46
2022/05/31 02:03:16;;;;;;;2.67;2.47;;;18.50;48.90;19.90;100507.00;;;;4971452;28;20699;-44
2022/05/31 02:05:52;;;;;;;3.03;2.40;;;18.40;48.90;19.90;100516.00;;;;4988152;28;20183;-45
2022/05/31 02:08:19;;;;;;;2.83;2.50;;;18.40;48.90;19.90;100511.00;;;;4988956;28;20679;-45
2022/05/31 02:10:46;;;;;;;2.73;2.43;;;18.40;48.90;19.90;100506.00;;;;4989162;28;20612;-45
2022/05/31 02:13:12;;;;;;;3.03;2.47;;;18.40;48.90;19.90;100520.00;;;;4988154;28;20183;-45
2022/05/31 02:15:38;;;;;;;3.00;2.50;;;18.40;48.90;19.80;100502.00;;;;4989148;28;20181;-45
2022/05/31 02:18:04;;;;;;;3.13;2.60;;;18.40;48.90;19.80;100502.00;;;;4988429;28;20203;-45
2022/05/31 02:20:30;;;;;;;2.93;2.40;;;18.40;48.90;19.80;100496.00;;;;4988869;28;20204;-44
2022/05/31 02:22:55;;;;;;;2.77;2.40;;;18.40;48.90;19.80;100504.00;;;;4987773;28;20149;-45
2022/05/31 02:25:21;;;;;;;3.00;2.57;;;18.40;48.90;19.80;100500.00;;;;4988935;28;20199;-45
2022/05/31 02:27:47;;;;;;;3.40;2.50;;;18.30;48.80;19.80;100508.00;;;;4988680;28;20226;-46
2022/05/31 02:30:13;;;;;;;3.70;2.50;;;18.30;48.80;19.80;100506.00;;;;4988321;28;20207;-45
2022/05/31 02:32:39;;;;;;;2.67;2.43;;;18.30;48.80;19.80;100505.00;;;;4988622;28;20713;-44
2022/05/31 02:35:05;;;;;;;2.73;2.30;;;18.30;48.80;19.70;100501.00;;;;4988726;28;20876;-45
2022/05/31 02:37:31;;;;;;;2.70;2.30;;;18.30;48.90;19.70;100505.00;;;;4988248;28;20300;-45
2022/05/31 02:39:57;;;;;;;2.50;2.30;;;18.30;48.80;19.70;100507.00;;;;4988739;28;20197;-45
2022/05/31 02:42:23;;;;;;;2.30;2.10;;;18.30;48.80;19.70;100510.00;;;;4989169;28;20237;-45
2022/05/31 02:44:48;;;;;;;3.67;2.40;;;18.40;48.90;19.70;100518.00;;;;4989121;28;20172;-45
2022/05/31 02:47:14;;;;;;;2.53;2.23;;;18.40;48.90;19.70;100517.00;;;;4988217;28;20183;-45
2022/05/31 02:49:40;;;;;;;3.23;2.27;;;18.30;48.80;19.60;100503.00;;;;4988452;28;20186;-45
2022/05/31 02:52:06;;;;;;;2.30;2.10;;;18.30;48.80;19.60;100504.00;;;;4988028;28;20200;-45
2022/05/31 02:54:32;;;;;;;2.93;2.43;;;18.30;48.80;19.60;100498.00;;;;4988033;28;20210;-45
2022/05/31 02:56:57;;;;;;;2.57;2.37;;;18.30;48.80;19.60;100507.00;;;;4988536;28;20186;-44
2022/05/31 02:59:23;;;;;;;3.10;2.30;;;18.30;48.80;19.60;100498.00;;;;4988246;28;20203;-44
2022/05/31 03:01:49;;;;;;;2.33;2.13;;;18.30;48.80;19.60;100497.00;;;;4987994;28;20209;-44
2022/05/31 03:04:16;;;;;;;3.67;2.30;;;18.30;48.80;19.60;100501.00;;;;4988637;28;20546;-45
2022/05/31 03:06:42;;;;;;;3.03;2.20;;;18.30;48.80;19.60;100498.00;;;;4988435;28;20176;-44
2022/05/31 03:09:08;;;;;;;2.57;2.20;;;18.30;48.80;19.60;100492.00;;;;4987953;28;20179;-44
2022/05/31 03:11:51;;;;;;;3.00;2.27;;;18.30;48.90;19.60;100495.00;;;;4988071;28;20199;-44
2022/05/31 03:14:38;;;;;;;2.30;2.10;;;18.20;49.00;19.50;100485.00;;;;4987992;28;20290;-46
2022/05/31 03:17:20;;;;;;;2.20;2.00;;;18.20;49.00;19.50;100483.00;;;;4987105;28;20181;-46
2022/05/31 03:19:51;;;;;;;3.73;2.20;;;18.20;49.00;19.50;100479.00;;;;4987104;28;20191;-45
2022/05/31 03:22:21;;;;;;;2.53;2.33;;;18.20;49.00;19.50;100483.00;;;;4971466;28;20560;-46
2022/05/31 03:24:54;;;;;;;2.20;2.00;;;18.20;49.10;19.50;100483.00;;;;4987892;28;20182;-46
2022/05/31 03:27:20;;;;;;;2.63;2.13;;;18.20;49.10;19.50;100482.00;;;;4987635;28;20171;-46
2022/05/31 03:29:46;;;;;;;2.37;2.17;;;18.20;49.10;19.40;100479.00;;;;4987942;28;20180;-45
2022/05/31 03:32:13;;;;;;;2.37;2.07;;;18.10;49.10;19.40;100472.00;;;;4970509;28;20187;-46
2022/05/31 03:34:39;;;;;;;2.07;1.93;;;18.10;49.00;19.40;100486.00;;;;4970667;28;20196;-44
2022/05/31 03:37:05;;;;;;;3.00;2.20;;;18.10;49.30;19.40;100480.00;;;;4987529;28;20175;-43
2022/05/31 03:39:30;;;;;;;3.20;2.20;;;18.10;49.10;19.40;100486.00;;;;4987449;28;20210;-46
2022/05/31 03:41:56;;;;;;;2.97;2.00;;;18.10;49.20;19.40;100477.00;;;;4983946;28;20211;-45
2022/05/31 03:44:22;;;;;;;2.10;1.90;;;18.10;49.20;19.40;100481.00;;;;4983894;28;20969;-45
2022/05/31 03:46:47;;;;;;;2.20;2.00;;;18.10;49.50;19.40;100474.00;;;;4991333;28;20542;-45
2022/05/31 03:49:17;;;;;;;2.87;2.10;;;18.10;49.60;19.40;100484.00;;;;4990877;28;20176;-45
2022/05/31 03:51:42;;;;;;;2.30;2.10;;;18.10;49.60;19.40;100490.00;;;;4991027;28;20278;-46
2022/05/31 03:54:08;;;;;;;3.07;2.10;;;18.10;49.60;19.40;100490.00;;;;4991450;28;20810;-46
2022/05/31 03:56:36;;;;;;;2.10;1.80;;;18.10;49.70;19.40;100485.00;;;;4991038;28;20761;-46
2022/05/31 03:59:02;;;;;;;3.00;2.00;;;18.10;49.80;19.40;100480.00;;;;4992198;28;20223;-46
2022/05/31 04:01:28;;;;;;;2.63;2.00;;;18.00;49.80;19.40;100479.00;;;;4995022;28;20197;-46
2022/05/31 04:03:54;;;;;;;2.20;2.00;;;18.10;49.80;19.40;100479.00;;;;4991305;28;20223;-45
2022/05/31 04:06:20;;;;;;;2.70;1.97;;;18.00;49.80;19.40;100466.00;;;;4990838;28;20180;-46
2022/05/31 04:08:46;;;;;;;2.97;1.90;;;18.10;49.90;19.40;100472.00;;;;4990907;28;20178;-45
2022/05/31 04:11:12;;;;;;;2.27;2.07;;;18.00;49.90;19.40;100464.00;;;;4990875;28;20209;-45
2022/05/31 04:13:38;;;;;;;2.20;1.97;;;18.10;50.00;19.40;100474.00;;;;4989973;28;20212;-44
2022/05/31 04:16:12;;;;;;;2.37;2.00;;;18.10;50.00;19.40;100464.00;;;;4990688;28;20180;-45
2022/05/31 04:18:38;;;;;;;2.80;2.20;;;18.00;50.00;19.40;100466.00;;;;4989652;28;20239;-46
2022/05/31 04:21:06;;;;;;;2.10;2.00;;;18.00;50.20;19.40;100475.00;;;;4990517;28;20240;-45
2022/05/31 04:26:17;;;;;;;2.30;2.00;;;18.10;50.30;19.40;100469.00;;;;4990364;28;20165;-44
2022/05/31 04:28:43;;;;;;;2.10;2.00;;;18.00;50.30;19.40;100465.00;;;;4990210;28;20553;-46
2022/05/31 04:31:08;;;;;;;2.60;2.00;;;18.10;50.30;19.40;100469.00;;;;4990526;28;20236;-45
2022/05/31 04:33:34;;;;;;;2.10;1.90;;;18.00;50.30;19.40;100472.00;;;;4990725;28;20186;-46
2022/05/31 04:36:09;;;;;;;3.30;2.03;;;18.00;50.40;19.40;100480.00;;;;4990039;28;20506;-46
2022/05/31 04:38:35;;;;;;;1.90;1.80;;;17.90;50.40;19.30;100477.00;;;;4990595;28;20199;-45
2022/05/31 04:41:01;;;;;;;2.30;2.10;;;18.00;50.50;19.40;100483.00;;;;4990347;28;20208;-46
2022/05/31 04:43:26;;;;;;;1.97;1.87;;;18.00;50.40;19.40;100495.00;;;;4990174;28;20162;-46
2022/05/31 04:45:52;;;;;;;2.43;2.00;;;18.00;50.60;19.30;100480.00;;;;5000806;28;20241;-45
2022/05/31 04:48:18;;;;;;;3.87;1.97;;;17.90;50.50;19.30;100479.00;;;;5000489;28;20191;-46
2022/05/31 04:50:43;;;;;;;2.33;2.00;;;17.90;50.60;19.30;100480.00;;;;4991172;28;20867;-46
2022/05/31 04:53:09;;;;;;;2.97;1.90;;;18.00;50.70;19.30;100498.00;;;;4990229;28;20189;-45
2022/05/31 04:55:35;;;;;;;2.20;2.00;;;18.00;50.60;19.30;100496.00;;;;4990095;28;20197;-45
2022/05/31 04:58:00;;;;;;;2.97;1.90;;;17.90;50.70;19.30;100493.00;;;;4989838;28;20195;-46
2022/05/31 05:00:27;;;;;;;1.90;1.80;;;17.90;50.70;19.30;100496.00;;;;4990504;28;20217;-45
2022/05/31 05:02:52;;;;;;;2.20;2.00;;;17.90;50.70;19.30;100497.00;;;;4990250;28;20612;-45
2022/05/31 05:05:18;;;;;;;2.13;1.93;;;17.90;50.70;19.30;100510.00;;;;4989964;28;20204;-45
2022/05/31 05:07:44;;;;;;;1.93;1.77;;;17.90;50.70;19.30;100501.00;;;;4989775;28;20178;-44
2022/05/31 05:10:10;;;;;;;2.13;1.93;;;17.90;50.70;19.20;100504.00;;;;4989805;28;20185;-47
2022/05/31 05:12:36;;;;;;;1.90;1.80;;;17.90;50.80;19.20;100497.00;;;;4989962;28;20222;-45
2022/05/31 05:15:02;;;;;;;2.10;1.90;;;17.90;50.80;19.20;100484.00;;;;4990186;28;20180;-45
2022/05/31 05:17:28;;;;;;;1.80;1.70;;;17.90;50.90;19.20;100481.00;;;;4991055;28;20250;-44
2022/05/31 05:19:54;;;;;;;2.00;1.80;;;17.90;50.90;19.20;100477.00;;;;4989290;28;20542;-44
2022/05/31 05:22:19;;;;;;;1.90;1.80;;;17.90;51.00;19.20;100464.00;;;;4989754;28;20211;-45
2022/05/31 05:24:45;;;;;;;2.00;1.90;;;17.90;50.90;19.20;100469.00;;;;4989876;28;20769;-45
2022/05/31 05:27:11;;;;;;;1.90;1.80;;;17.90;51.00;19.20;100461.00;;;;4989076;28;20177;-45
2022/05/31 05:32:21;;;;;;;2.10;1.90;;;17.90;50.90;19.20;100466.00;;;;4990866;28;20220;-45
2022/05/31 05:34:52;;;;;;;1.90;1.80;;;17.90;50.90;19.20;100464.00;;;;4989772;28;20193;-45
2022/05/31 05:37:19;;;;;;;2.10;2.00;;;17.90;51.00;19.20;100475.00;;;;4989070;28;20322;-45
2022/05/31 05:39:47;;;;;;;1.90;1.80;;;17.80;50.90;19.20;100476.00;;;;4989371;28;20292;-46
2022/05/31 05:42:13;;;;;;;2.20;2.00;;;17.80;51.00;19.20;100476.00;;;;4988029;28;20708;-46
2022/05/31 05:44:39;;;;;;;1.90;1.80;;;17.80;50.90;19.20;100484.00;;;;4989021;28;20209;-44
2022/05/31 05:47:07;;;;;;;1.83;1.73;;;17.80;51.00;19.20;100480.00;;;;4989160;28;20191;-45
2022/05/31 05:49:32;;;;;;;1.80;1.70;;;17.80;51.00;19.20;100477.00;;;;4989320;28;20518;-45
2022/05/31 05:51:59;;;;;;;3.13;1.70;;;17.80;51.00;19.20;100476.00;;;;4989510;28;20203;-43
2022/05/31 05:54:25;;;;;;;2.00;1.70;;;17.80;51.10;19.20;100467.00;;;;4988458;28;20181;-45
2022/05/31 05:56:51;;;;;;;1.70;1.60;;;17.80;51.00;19.20;100470.00;;;;4988872;28;20185;-45
2022/05/31 05:59:18;;;;;;;1.90;1.80;;;17.80;51.10;19.20;100470.00;;;;4988795;28;20203;-45
2022/05/31 06:01:47;;;;;;;1.80;1.70;;;17.80;51.10;19.20;100472.00;;;;4988638;28;20206;-45
2022/05/31 06:04:23;;;;;;;1.97;1.87;;;17.80;51.20;19.10;100455.00;;;;4971439;28;20951;-46
2022/05/31 06:06:48;;;;;;;2.17;1.70;;;17.80;51.20;19.10;100468.00;;;;4988720;28;20526;-46
2022/05/31 06:09:18;;;;;;;2.10;1.90;;;17.80;51.30;19.10;100468.00;;;;4955265;28;20173;-45
2022/05/31 06:12:13;;;;;;;1.90;1.80;;;17.80;51.30;19.10;100460.00;;;;4988283;28;20289;-46
2022/05/31 06:14:46;;;;;;;1.70;1.60;;;17.80;51.20;19.10;100467.00;;;;4987720;28;20176;-46
2022/05/31 06:17:20;;;;;;;1.90;1.70;;;17.80;51.40;19.10;100464.00;;;;4972245;28;20666;-45
2022/05/31 06:19:47;;;;;;;1.80;1.70;;;17.80;51.40;19.10;100468.00;;;;4987455;28;20211;-46
2022/05/31 06:22:12;;;;;;;1.90;1.80;;;17.80;51.30;19.10;100475.00;;;;4987061;28;20206;-45
2022/05/31 06:24:38;;;;;;;1.83;1.73;;;17.80;51.40;19.10;100476.00;;;;4988518;28;20609;-44
2022/05/31 06:27:04;;;;;;;1.70;1.60;;;17.70;51.30;19.10;100474.00;;;;4990432;28;20178;-45
2022/05/31 06:29:30;;;;;;;1.73;1.63;;;17.70;51.40;19.10;100484.00;;;;5005316;28;20714;-45
2022/05/31 06:31:55;;;;;;;1.80;1.70;;;17.70;51.40;19.10;100481.00;;;;4997445;28;20192;-45
2022/05/31 06:34:23;;;;;;;1.73;1.63;;;17.70;51.40;19.10;100476.00;;;;4988354;28;20180;-45
2022/05/31 06:36:49;;;;;;;1.73;1.63;;;17.80;51.50;19.10;100476.00;;;;4986393;28;20559;-45
2022/05/31 06:39:15;;;;;;;1.77;1.67;;;17.70;51.40;19.10;100485.00;;;;4988175;28;20202;-45
2022/05/31 06:41:41;;;;;;;1.80;1.70;;;17.70;51.50;19.10;100488.00;;;;4988454;28;20236;-44
2022/05/31 06:44:07;;;;;;;1.97;1.87;;;17.70;51.50;19.00;100473.00;;;;4988577;28;20759;-45
2022/05/31 06:46:32;;;;;;;1.80;1.70;;;17.70;51.50;19.10;100478.00;;;;4987795;28;20178;-45
2022/05/31 06:49:00;;;;;;;1.73;1.63;;;17.70;51.60;19.00;100471.00;;;;4988040;28;20215;-45
2022/05/31 06:57:01;;;;;;;1.80;1.70;;;17.70;51.70;19.00;100484.00;;;;4987881;28;20276;-45
2022/05/31 06:59:26;;;;;;;1.63;1.60;;;17.70;51.80;19.00;100483.00;;;;4987852;28;20212;-45
2022/05/31 07:01:53;;;;;;;1.70;1.60;;;17.70;51.80;19.00;100503.00;;;;4987826;28;20201;-45
2022/05/31 07:04:19;;;;;;;1.60;1.50;;;17.70;51.80;19.00;100510.00;;;;4988107;28;20182;-45
2022/05/31 07:06:45;;;;;;;1.80;1.70;;;17.60;51.80;19.00;100505.00;;;;4987623;28;20223;-45
2022/05/31 07:09:12;;;;;;;1.60;1.50;;;17.70;51.90;19.00;100499.00;;;;4987821;28;20184;-45
2022/05/31 07:11:38;;;;;;;1.77;1.67;;;17.70;51.90;19.00;100488.00;;;;4987995;28;20210;-45
2022/05/31 07:14:04;;;;;;;1.90;1.80;;;17.70;52.00;19.00;100499.00;;;;4987342;28;20224;-45
2022/05/31 07:16:30;;;;;;;1.80;1.70;;;17.70;52.00;19.00;100496.00;;;;4987441;28;20173;-45
2022/05/31 07:18:56;;;;;;;1.80;1.70;;;17.60;52.00;19.00;100485.00;;;;4987428;28;20200;-45
2022/05/31 07:21:21;;;;;;;1.70;1.60;;;17.70;52.10;19.00;100501.00;;;;4987754;28;20215;-45
2022/05/31 07:23:47;;;;;;;1.80;1.70;;;17.60;52.20;19.00;100495.00;;;;4987918;28;20196;-44
2022/05/31 07:26:13;;;;;;;2.33;1.73;;;17.70;52.50;19.00;100492.00;;;;4987600;28;20178;-45
2022/05/31 07:28:39;;;;;;;1.90;1.80;;;17.70;52.60;19.00;100498.00;;;;4987794;28;20236;-45
2022/05/31 07:31:05;;;;;;;2.00;1.80;;;17.70;52.70;19.00;100493.00;;;;4987560;28;20809;-48
2022/05/31 07:33:31;;;;;;;2.13;1.77;;;17.70;52.70;19.00;100494.00;;;;4988025;28;20359;-46
2022/05/31 07:35:57;;;;;;;2.00;1.90;;;17.60;52.60;19.00;100494.00;;;;4987155;28;20219;-45
2022/05/31 07:38:23;;;;;;;1.60;1.50;;;17.60;52.60;19.00;100496.00;;;;4987576;28;20204;-45
2022/05/31 07:40:49;;;;;;;1.80;1.70;;;17.60;52.60;19.00;100492.00;;;;4989586;28;20196;-45
2022/05/31 07:43:15;;;;;;;2.17;1.83;;;17.60;52.60;19.00;100485.00;;;;5000057;28;20176;-45
2022/05/31 07:45:41;;;;;;;2.50;1.70;;;17.60;52.70;18.90;100484.00;;;;4989239;28;20273;-45
2022/05/31 07:48:07;;;;;;;1.87;1.77;;;17.60;52.80;19.00;100484.00;;;;4986205;28;20178;-45
2022/05/31 07:50:33;;;;;;;2.13;1.60;;;17.60;52.70;18.90;100488.00;;;;4987090;28;20684;-47
2022/05/31 07:52:59;;;;;;;1.90;1.70;;;17.60;52.80;18.90;100482.00;;;;4987787;28;20187;-44
2022/05/31 07:55:27;;;;;;;4.57;1.80;;;17.60;52.90;18.90;100476.00;;;;4986457;28;20256;-45
2022/05/31 08:00:37;;;;;;;1.60;1.50;;;17.60;52.90;18.90;100428.00;;;;4993258;28;20258;-44
2022/05/31 08:03:05;;;;;;;2.37;1.83;;;17.60;52.70;18.90;100475.00;;;;4993915;28;20165;-44
2022/05/31 08:05:31;;;;;;;1.93;1.83;;;17.60;52.90;18.90;100469.00;;;;4984952;28;20193;-43
2022/05/31 08:07:56;;;;;;;1.97;1.70;;;17.60;52.80;18.90;100469.00;;;;4987091;28;20850;-44
2022/05/31 08:10:22;;;;;;;1.90;1.63;;;17.60;52.80;18.90;100473.00;;;;4988540;28;20196;-46
2022/05/31 08:12:48;;;;;;;1.93;1.70;;;17.60;52.90;18.90;100485.00;;;;4989263;28;20231;-46
2022/05/31 08:15:14;;;;;;;1.70;1.60;;;17.60;52.80;18.90;100485.00;;;;4989031;28;20174;-44
2022/05/31 08:17:40;;;;;;;2.03;1.80;;;17.60;52.90;18.90;100488.00;;;;4988415;28;20269;-46
2022/05/31 08:20:06;;;;;;;1.73;1.63;;;17.60;52.90;18.90;100477.00;;;;4988601;28;20204;-45
2022/05/31 08:22:33;;;;;;;1.70;1.60;;;17.60;52.90;18.90;100480.00;;;;4988690;28;20188;-44
2022/05/31 08:24:59;;;;;;;1.60;1.50;;;17.50;52.70;18.90;100477.00;;;;4987395;28;20607;-45
2022/05/31 08:27:25;;;;;;;1.73;1.63;;;17.60;52.90;18.70;100475.00;;;;4990627;28;20161;-48
2022/05/31 08:29:50;;;;;;;1.67;1.57;;;17.60;52.90;18.90;100470.00;;;;4992137;28;20191;-44
2022/05/31 08:32:16;;;;;;;2.17;1.60;;;17.60;52.80;18.90;100392.00;;;;4992247;28;20207;-45
2022/05/31 08:34:42;;;;;;;2.13;1.70;;;17.60;52.90;18.90;100457.00;;;;4992709;28;20204;-46
2022/05/31 08:37:08;;;;;;;1.70;1.60;;;17.50;52.80;18.90;100456.00;;;;4991564;28;20289;-44
2022/05/31 08:39:33;;;;;;;1.70;1.60;;;17.60;53.50;18.90;100457.00;;;;4992250;28;20259;-45
2022/05/31 08:42:08;;;;;;;1.80;1.70;;;17.60;52.90;18.90;100458.00;;;;4991678;28;20209;-45
2022/05/31 08:44:42;;;;;;;1.50;1.40;;;17.60;52.90;18.90;100444.00;;;;4992373;28;20226;-45
2022/05/31 08:47:42;;;;;;;1.70;1.60;;;17.60;52.90;18.90;100450.00;;;;4958942;28;20181;-45
2022/05/31 08:53:35;;;;;;;2.03;1.70;;;17.60;53.00;18.90;100450.00;;;;4992415;28;20172;-45
2022/05/31 08:59:03;;;;;;;5.17;1.57;;;17.60;53.20;18.90;100455.00;;;;4998353;28;20199;-45
2022/05/31 09:01:49;;;;;;;4.20;2.00;;;17.60;53.20;18.90;100453.00;;;;4993531;28;20839;-45
2022/05/31 09:04:27;;;;;;;4.17;2.07;;;17.60;53.20;18.90;100440.00;;;;4971165;28;20254;-44
2022/05/31 09:06:58;;;;;;;3.27;1.80;;;17.60;53.30;18.90;100471.00;;;;4970988;28;20191;-45
2022/05/31 09:09:26;;;;;;;3.30;1.80;;;17.60;53.30;18.90;100473.00;;;;4970711;28;20290;-44
2022/05/31 09:12:04;;;;;;;3.90;1.87;;;17.60;53.20;18.90;100454.00;;;;4969303;28;20658;-45
2022/05/31 09:14:52;;;;;;;2.53;1.70;;;17.60;53.30;18.90;100467.00;;;;4953479;28;20630;-44
2022/05/31 09:17:33;;;;;;;3.10;1.90;;;17.50;53.20;18.90;100473.00;;;;4985507;28;20165;-45
2022/05/31 09:20:03;;;;;;;4.20;1.80;;;17.50;53.20;18.90;100486.00;;;;4969864;28;20233;-45
2022/05/31 09:22:29;;;;;;;2.57;1.83;;;17.60;53.30;18.90;100476.00;;;;4985654;28;20192;-45
2022/05/31 09:24:55;;;;;;;3.13;1.50;;;17.60;53.30;18.90;100482.00;;;;4986119;28;20177;-46
2022/05/31 09:27:45;;;;;;;2.20;1.87;;;17.60;53.30;18.90;100481.00;;;;4986464;28;20179;-46
2022/05/31 09:30:38;;;;;;;4.57;1.80;;;17.50;53.10;18.90;100487.00;;;;4985706;28;20411;-44
2022/05/31 09:33:28;;;;;;;2.13;1.60;;;17.50;53.10;18.90;100475.00;;;;4983641;28;20186;-44
2022/05/31 09:36:18;;;;;;;1.73;1.63;;;17.60;53.20;18.90;100476.00;;;;4972071;28;20245;-45
2022/05/31 09:39:11;;;;;;;3.20;1.80;;;17.60;53.20;18.90;100464.00;;;;4988753;28;20246;-46
2022/05/31 09:41:41;;;;;;;2.23;1.80;;;17.50;53.10;18.90;100452.00;;;;4990871;28;20200;-44
2022/05/31 09:44:26;;;;;;;1.90;1.80;;;17.50;53.20;18.90;100454.00;;;;4989965;28;20724;-45
2022/05/31 09:46:57;;;;;;;2.30;1.80;;;17.60;53.30;18.90;100459.00;;;;4989936;28;20264;-44
2022/05/31 09:49:36;;;;;;;1.83;1.60;;;17.50;53.20;18.90;100448.00;;;;4973916;28;20228;-46
2022/05/31 09:52:05;;;;;;;1.83;1.40;;;17.50;53.20;18.90;100439.00;;;;4990207;28;20193;-46
2022/05/31 09:57:25;;;;;;;4.53;1.80;;;17.60;53.30;18.90;100451.00;;;;4989693;28;20168;-45
2022/05/31 09:59:52;;;;;;;4.00;2.00;;;17.60;53.40;18.90;100465.00;;;;4973579;28;20692;-44
2022/05/31 10:02:25;;;;;;;5.07;1.90;;;17.50;53.50;18.90;100451.00;;;;4989909;28;20224;-45
2022/05/31 10:05:11;;;;;;;2.10;1.70;;;17.60;53.70;18.90;100458.00;;;;4808192;28;20535;-45
2022/05/31 10:07:37;;;;;;;3.17;1.90;;;17.60;53.80;18.90;100453.00;;;;4959966;28;20266;-46
2022/05/31 10:10:10;;;;;;;3.47;1.80;;;17.60;53.80;18.90;100457.00;;;;4989205;28;20593;-45
2022/05/31 10:12:36;;;;;;;4.40;1.90;;;17.60;53.80;18.90;100456.00;;;;4990493;28;20223;-45
2022/05/31 10:15:04;;;;;;;2.77;2.00;;;17.60;54.00;19.00;100456.00;;;;4995589;28;20190;-44
2022/05/31 10:17:41;;;;;;;7.87;2.10;;;17.60;54.10;18.90;100457.00;;;;4963966;28;20180;-45
2022/05/31 10:20:19;;;;;;;7.63;2.10;;;17.60;54.10;19.00;100448.00;;;;4990018;28;20235;-45
2022/05/31 10:23:11;;;;;;;5.63;2.40;;;17.60;54.10;19.00;100447.00;;;;4990419;28;20173;-44
2022/05/31 10:25:47;;;;;;;5.77;2.07;;;17.60;54.10;19.00;100443.00;;;;4989353;28;20161;-44
2022/05/31 10:28:50;;;;;;;6.33;2.30;;;17.60;54.10;19.00;100433.00;;;;4988791;28;20533;-45
2022/05/31 10:31:39;;;;;;;3.20;2.10;;;17.60;54.10;19.00;100422.00;;;;4987488;28;20227;-45
2022/05/31 10:34:24;;;;;;;3.73;2.13;;;17.60;54.10;19.00;100431.00;;;;4988389;28;20177;-45
2022/05/31 10:36:54;;;;;;;3.40;2.10;;;17.60;54.10;19.00;100368.00;;;;4988854;28;20201;-44
2022/05/31 10:39:26;;;;;;;3.87;2.10;;;17.60;54.20;19.00;100436.00;;;;4972690;28;20231;-44
2022/05/31 10:41:54;;;;;;;5.23;2.30;;;17.60;54.20;19.00;100428.00;;;;4988300;28;20196;-43
2022/05/31 10:44:40;;;;;;;5.70;2.00;;;17.60;54.30;19.00;100422.00;;;;4989251;28;20200;-44
2022/05/31 10:47:12;;;;;;;3.97;2.00;;;17.60;54.40;19.00;100421.00;;;;4988373;28;20157;-44
2022/05/31 10:49:38;;;;;;;4.70;2.10;;;17.60;54.50;19.00;100421.00;;;;4989626;28;20558;-43
2022/05/31 10:52:46;;;;;;;3.60;2.13;;;17.70;54.70;19.00;100424.00;;;;4988508;28;20204;-45
2022/05/31 10:55:40;;;;;;;8.20;2.10;;;17.60;54.50;19.00;100420.00;;;;4988204;28;20173;-44
2022/05/31 10:58:14;;;;;;;7.37;2.13;;;17.60;54.60;19.00;100407.00;;;;4972176;28;20828;-46
2022/05/31 11:01:04;;;;;;;4.17;2.10;;;17.70;54.80;19.00;100420.00;;;;4988022;28;20184;-45
2022/05/31 11:03:59;;;;;;;2.63;1.70;;;17.70;54.80;19.00;100409.00;;;;4973154;28;20674;-45
2022/05/31 11:07:13;;;;;;;5.27;1.80;;;17.70;54.80;19.00;100404.00;;;;4865117;28;20577;-45
2022/05/31 11:13:07;;;;;;;8.73;2.50;;;17.70;55.30;19.00;100402.00;;;;4988194;28;20168;-44
2022/05/31 11:15:50;;;;;;;4.03;2.13;;;17.80;55.10;19.00;100414.00;;;;4991858;28;20193;-45
2022/05/31 11:18:44;;;;;;;5.93;2.00;;;17.80;55.20;19.00;100410.00;;;;4976715;28;20184;-44
2022/05/31 11:21:31;;;;;;;6.10;2.00;;;17.80;55.10;19.00;100399.00;;;;4989411;28;20204;-45
2022/05/31 11:24:56;;;;;;;4.30;2.10;;;17.90;55.40;19.10;100405.00;;;;4973217;28;20165;-45
2022/05/31 11:27:45;;;;;;;2.70;1.90;;;17.90;55.30;19.10;100421.00;;;;4986671;28;20227;-45
2022/05/31 11:30:27;;;;;;;3.03;1.90;;;17.90;55.50;19.10;100406.00;;;;4987895;28;20199;-45
2022/05/31 11:33:34;;;;;;;3.17;1.83;;;17.90;55.40;19.10;100409.00;;;;4988231;28;20240;-46